Time;durP1;ratioP1;P1;durP2;ratioP2;P2;SDS_P1;SDS_P2;PMS_P1;PMS_P2;Temp;Humidity;BMP_temperature;BMP_pressure;BME280_temperature;BME280_humidity;BME280_pressure;Samples;Min_cycle;Max_cycle;Signal;HPM_P1;HPM_P2
2022/08/01 00:00:37;;;;;;;3.08;2.10;;;;;;;15.54;76.67;98579.69;4485228;31;20468;-70
2022/08/01 00:03:05;;;;;;;5.07;2.20;;;;;;;15.63;76.51;98581.28;4485161;31;20130;-70
2022/08/01 00:05:32;;;;;;;4.00;2.58;;;;;;;15.71;76.18;98575.13;4485113;31;20128;-70
2022/08/01 00:07:59;;;;;;;2.60;2.10;;;;;;;15.79;75.91;98580.38;4485185;31;20096;-70
2022/08/01 00:10:27;;;;;;;5.50;2.10;;;;;;;15.77;75.97;98577.91;4485094;32;20141;-70
2022/08/01 00:12:54;;;;;;;2.60;2.00;;;;;;;15.78;76.03;98576.09;4485085;31;20080;-70
2022/08/01 00:15:21;;;;;;;3.05;2.30;;;;;;;15.85;75.49;98576.22;4484238;31;20523;-70
2022/08/01 00:17:49;;;;;;;8.15;2.12;;;;;;;15.91;75.14;98570.22;4485393;32;20156;-70
2022/08/01 00:20:16;;;;;;;2.65;2.37;;;;;;;15.96;74.83;98566.06;4484921;32;20092;-70
2022/08/01 00:22:43;;;;;;;3.37;1.90;;;;;;;15.98;74.80;98565.06;4484881;31;20092;-70
2022/08/01 00:25:10;;;;;;;2.87;2.17;;;;;;;16.00;74.51;98566.53;4484980;31;20096;-70
2022/08/01 00:27:37;;;;;;;3.10;1.98;;;;;;;15.99;74.03;98567.53;4484585;32;20093;-70
2022/08/01 00:30:05;;;;;;;2.95;2.00;;;;;;;16.05;73.42;98560.69;4484884;31;20517;-70
2022/08/01 00:32:43;;;;;;;2.80;1.90;;;;;;;16.09;72.91;98556.72;4484895;32;20117;-70
2022/08/01 00:35:11;;;;;;;4.53;1.65;;;;;;;16.22;71.79;98550.84;4484819;31;20097;-70
2022/08/01 00:37:38;;;;;;;2.45;1.92;;;;;;;16.24;71.28;98556.75;4484699;31;20153;-69
2022/08/01 00:40:06;;;;;;;2.08;1.62;;;;;;;16.27;71.05;98551.13;4484801;31;20092;-70
2022/08/01 00:42:33;;;;;;;3.83;1.90;;;;;;;16.24;70.52;98544.34;4484701;32;20442;-70
2022/08/01 00:45:04;;;;;;;2.78;1.95;;;;;;;16.26;70.25;98552.09;4484795;31;20096;-70
2022/08/01 00:47:31;;;;;;;3.05;2.00;;;;;;;16.32;69.69;98549.59;4484592;31;20444;-70
2022/08/01 00:49:58;;;;;;;3.90;1.90;;;;;;;16.28;69.38;98544.84;4484664;31;20115;-70
2022/08/01 00:52:26;;;;;;;3.17;1.67;;;;;;;16.32;68.94;98548.75;4484643;31;20163;-70
2022/08/01 00:54:53;;;;;;;2.28;1.80;;;;;;;16.38;68.44;98555.97;4484895;31;20421;-70
2022/08/01 00:57:20;;;;;;;2.37;1.50;;;;;;;16.37;68.52;98550.88;4484205;32;20106;-70
2022/08/01 01:00:08;;;;;;;2.42;1.67;;;;;;;16.38;68.53;98552.50;4484619;31;20076;-70
2022/08/01 01:02:36;;;;;;;2.08;1.52;;;;;;;16.36;68.65;98552.69;4484423;31;20130;-70
2022/08/01 01:05:03;;;;;;;3.83;1.92;;;;;;;16.39;68.58;98554.97;4484467;31;20088;-70
2022/08/01 01:08:03;;;;;;;6.57;1.80;;;;;;;16.42;68.47;98562.53;4484314;32;20161;-70
2022/08/01 01:11:04;;;;;;;2.78;1.83;;;;;;;16.46;68.58;98560.37;4483352;32;20417;-70
2022/08/01 01:13:34;;;;;;;3.90;1.50;;;;;;;16.39;68.75;98559.44;4484780;31;20111;-70
2022/08/01 01:16:15;;;;;;;2.50;2.05;;;;;;;16.40;68.87;98553.97;4484319;31;20728;-70
2022/08/01 01:18:59;;;;;;;3.90;1.67;;;;;;;16.45;68.77;98561.34;4483222;32;20109;-70
2022/08/01 01:21:53;;;;;;;2.75;1.73;;;;;;;16.51;68.92;98563.28;4484350;31;20080;-70
2022/08/01 01:24:58;;;;;;;1.83;1.73;;;;;;;16.34;69.86;98559.97;4483096;32;20080;-70
2022/08/01 01:27:47;;;;;;;2.83;1.83;;;;;;;16.19;70.83;98564.41;4483028;32;20080;-70
2022/08/01 01:30:15;;;;;;;3.83;1.95;;;;;;;16.08;71.56;98563.84;4485081;32;20580;-70
2022/08/01 01:32:45;;;;;;;2.05;1.85;;;;;;;15.95;72.13;98560.97;4485972;31;20096;-70
2022/08/01 01:35:21;;;;;;;2.87;1.90;;;;;;;15.94;72.19;98559.31;4484858;32;20385;-70
2022/08/01 01:37:50;;;;;;;3.33;1.90;;;;;;;15.88;72.47;98560.00;4484824;32;20100;-70
2022/08/01 01:40:18;;;;;;;3.55;1.77;;;;;;;15.87;72.51;98553.09;4486112;31;20148;-70
2022/08/01 01:42:45;;;;;;;6.12;2.00;;;;;;;15.86;72.45;98560.19;4486449;31;20559;-70
2022/08/01 01:45:14;;;;;;;2.92;1.95;;;;;;;15.92;72.22;98551.56;4486263;32;20135;-70
2022/08/01 01:47:41;;;;;;;2.95;1.85;;;;;;;15.92;72.25;98556.03;4484897;32;20127;-70
2022/08/01 01:50:10;;;;;;;2.62;1.70;;;;;;;15.91;72.35;98555.22;4484859;32;20101;-70
2022/08/01 01:52:39;;;;;;;2.42;1.95;;;;;;;15.92;72.46;98551.56;4486101;31;20600;-70
2022/08/01 01:55:08;;;;;;;2.53;1.87;;;;;;;15.91;72.46;98547.28;4484665;32;20076;-70
2022/08/01 01:57:38;;;;;;;3.28;1.75;;;;;;;15.87;72.51;98546.00;4485890;31;20123;-70
2022/08/01 02:00:07;;;;;;;1.98;1.60;;;;;;;15.82;72.74;98547.50;4484840;32;20468;-70
2022/08/01 02:02:36;;;;;;;4.28;1.95;;;;;;;15.83;72.57;98551.81;4484671;32;20085;-70
2022/08/01 02:05:05;;;;;;;4.25;1.80;;;;;;;15.86;72.38;98546.97;4484677;32;20112;-70
2022/08/01 02:07:33;;;;;;;3.28;1.90;;;;;;;15.86;72.45;98551.44;4485919;31;20084;-70
2022/08/01 02:10:02;;;;;;;2.58;1.73;;;;;;;15.92;72.08;98542.81;4484952;32;20108;-70
2022/08/01 02:12:33;;;;;;;2.05;1.58;;;;;;;15.91;72.20;98542.00;4485860;31;20096;-70
2022/08/01 02:15:01;;;;;;;2.62;1.55;;;;;;;15.88;72.06;98538.88;4484822;32;20076;-70
2022/08/01 02:17:29;;;;;;;3.45;2.08;;;;;;;15.84;72.01;98533.12;4484388;32;20096;-70
2022/08/01 02:19:57;;;;;;;1.80;1.52;;;;;;;15.88;71.65;98530.94;4484820;32;20484;-70
2022/08/01 02:22:51;;;;;;;2.83;1.98;;;;;;;15.83;71.68;98539.41;4485888;31;20111;-70
2022/08/01 02:25:37;;;;;;;4.90;1.73;;;;;;;15.87;71.59;98527.50;4485806;31;20077;-70
2022/08/01 02:28:31;;;;;;;4.30;1.73;;;;;;;15.87;71.61;98537.25;4485528;32;20084;-70
2022/08/01 02:31:10;;;;;;;2.25;1.83;;;;;;;15.91;71.67;98531.44;4484652;32;20100;-70
2022/08/01 02:33:40;;;;;;;2.00;1.77;;;;;;;15.89;72.18;98533.41;4485749;31;20084;-70
2022/08/01 02:36:08;;;;;;;2.10;1.90;;;;;;;15.86;72.58;98535.59;4485694;32;20119;-70
2022/08/01 02:38:57;;;;;;;3.62;1.85;;;;;;;15.78;73.17;98542.59;4485189;31;20092;-70
2022/08/01 02:41:26;;;;;;;2.83;1.75;;;;;;;15.82;73.17;98542.22;4484508;32;20100;-70
2022/08/01 02:43:59;;;;;;;4.57;1.67;;;;;;;15.81;73.30;98543.25;4484582;32;20096;-70
2022/08/01 02:46:32;;;;;;;2.87;2.00;;;;;;;15.84;73.07;98540.25;4485742;32;20107;-70
2022/08/01 02:49:00;;;;;;;2.50;1.90;;;;;;;15.81;72.95;98536.13;4485871;31;20088;-70
2022/08/01 02:51:28;;;;;;;3.42;2.30;;;;;;;15.87;72.54;98539.91;4484438;32;20452;-70
2022/08/01 02:53:56;;;;;;;3.22;1.77;;;;;;;15.86;72.38;98528.50;4484452;32;20088;-70
2022/08/01 02:56:24;;;;;;;3.70;2.20;;;;;;;15.84;72.71;98522.56;4484427;32;20099;-70
2022/08/01 02:58:52;;;;;;;2.53;1.70;;;;;;;15.86;72.67;98530.31;4484033;32;20113;-70
2022/08/01 03:01:19;;;;;;;2.85;2.37;;;;;;;15.88;72.81;98523.03;4484488;32;20119;-70
2022/08/01 03:03:47;;;;;;;3.60;1.98;;;;;;;15.90;72.76;98521.06;4484260;32;20118;-70
2022/08/01 03:06:15;;;;;;;3.47;2.00;;;;;;;15.94;72.48;98528.44;4474368;32;20093;-70
2022/08/01 03:08:43;;;;;;;2.08;1.85;;;;;;;15.94;72.54;98509.09;4468352;32;20093;-70
2022/08/01 03:11:12;;;;;;;2.53;1.83;;;;;;;15.95;72.62;98506.28;4468521;32;20260;-70
2022/08/01 03:13:41;;;;;;;2.70;1.85;;;;;;;15.99;72.55;98509.41;4468614;32;20142;-70
2022/08/01 03:16:09;;;;;;;5.10;2.10;;;;;;;16.07;72.33;98511.97;4468597;32;20141;-70
2022/08/01 03:18:37;;;;;;;5.78;2.15;;;;;;;16.06;72.54;98507.69;4468501;32;20120;-70
2022/08/01 03:21:06;;;;;;;3.62;2.25;;;;;;;16.09;72.77;98512.63;4468847;32;20105;-70
2022/08/01 03:23:34;;;;;;;7.20;2.10;;;;;;;16.10;73.12;98514.25;4468450;32;20780;-70
2022/08/01 03:26:05;;;;;;;5.28;2.25;;;;;;;16.14;73.15;98515.53;4468710;32;20093;-70
2022/08/01 03:28:32;;;;;;;4.43;1.90;;;;;;;16.18;73.30;98512.53;4468106;32;20097;-70
2022/08/01 03:31:00;;;;;;;3.53;2.17;;;;;;;16.22;73.37;98513.84;4468669;32;20846;-70
2022/08/01 03:33:27;;;;;;;3.65;3.08;;;;;;;16.24;73.34;98512.63;4468265;32;20123;-70
2022/08/01 03:35:55;;;;;;;3.35;2.08;;;;;;;16.24;73.35;98503.91;4468953;32;20107;-70
2022/08/01 03:38:26;;;;;;;4.75;2.25;;;;;;;16.30;73.27;98505.81;4485089;31;20124;-70
2022/08/01 03:40:56;;;;;;;2.30;2.10;;;;;;;16.28;73.59;98515.75;4484233;32;20113;-70
2022/08/01 03:43:33;;;;;;;2.90;2.35;;;;;;;16.30;73.68;98505.81;4485198;31;20456;-70
2022/08/01 03:46:07;;;;;;;4.62;2.05;;;;;;;16.36;73.20;98514.84;4484198;32;20544;-70
2022/08/01 03:48:41;;;;;;;3.70;1.87;;;;;;;16.40;72.89;98522.25;4483924;32;20097;-70
2022/08/01 03:51:08;;;;;;;3.97;1.85;;;;;;;16.49;72.72;98517.69;4484546;31;20089;-70
2022/08/01 03:53:37;;;;;;;2.58;1.95;;;;;;;16.49;72.72;98518.50;4485147;32;20160;-70
2022/08/01 03:56:08;;;;;;;5.68;2.12;;;;;;;16.49;72.94;98515.88;4484013;32;20085;-70
2022/08/01 03:58:38;;;;;;;3.35;1.83;;;;;;;16.57;72.45;98516.78;4484850;31;20112;-70
2022/08/01 04:01:08;;;;;;;2.97;2.37;;;;;;;16.66;71.93;98523.63;4485435;31;20119;-70
2022/08/01 04:03:43;;;;;;;1.98;1.77;;;;;;;16.65;72.10;98519.34;4483931;32;20151;-70
2022/08/01 04:06:10;;;;;;;2.45;1.80;;;;;;;16.72;71.82;98525.53;4474731;32;20133;-70
2022/08/01 04:08:38;;;;;;;4.32;1.92;;;;;;;16.77;71.67;98528.44;4469331;32;20108;-70
2022/08/01 04:11:07;;;;;;;2.85;2.20;;;;;;;16.85;71.50;98532.81;4469559;32;20104;-70
2022/08/01 04:13:35;;;;;;;2.55;2.00;;;;;;;16.86;72.11;98537.13;4469213;32;20119;-70
2022/08/01 04:16:03;;;;;;;2.58;2.03;;;;;;;16.93;72.34;98534.59;4469748;32;20092;-70
2022/08/01 04:18:31;;;;;;;2.30;2.10;;;;;;;16.91;72.27;98534.78;4469344;32;20100;-70
2022/08/01 04:20:59;;;;;;;4.43;2.45;;;;;;;16.95;72.43;98541.34;4469425;32;20100;-70
2022/08/01 04:23:28;;;;;;;2.83;1.98;;;;;;;17.00;71.85;98535.50;4468635;32;20109;-70
2022/08/01 04:25:55;;;;;;;3.37;2.20;;;;;;;17.08;71.77;98535.41;4467555;32;20109;-70
2022/08/01 04:28:23;;;;;;;5.37;2.47;;;;;;;17.15;71.37;98533.66;4467565;32;20145;-70
2022/08/01 04:30:54;;;;;;;3.30;2.53;;;;;;;17.23;71.26;98529.25;4467426;32;20444;-70
2022/08/01 04:33:29;;;;;;;4.30;2.05;;;;;;;17.32;71.05;98533.44;4468618;32;20088;-70
2022/08/01 04:35:58;;;;;;;3.00;2.42;;;;;;;17.42;70.84;98531.31;4469039;32;20099;-70
2022/08/01 04:38:32;;;;;;;4.55;2.47;;;;;;;17.45;70.97;98525.62;4483551;32;20449;-70
2022/08/01 04:41:01;;;;;;;6.37;2.42;;;;;;;17.49;70.88;98528.75;4484206;31;20084;-70
2022/08/01 04:43:36;;;;;;;2.92;2.37;;;;;;;17.58;71.02;98530.28;4482704;32;20126;-70
2022/08/01 04:46:05;;;;;;;4.85;2.20;;;;;;;17.68;70.71;98524.66;4484898;31;20123;-70
2022/08/01 04:48:36;;;;;;;2.42;2.22;;;;;;;17.82;70.69;98533.53;4483698;31;20470;-70
2022/08/01 04:51:03;;;;;;;3.15;2.33;;;;;;;17.85;70.38;98535.81;4481847;32;20104;-70
2022/08/01 04:53:32;;;;;;;2.40;2.03;;;;;;;17.92;70.07;98531.41;4483178;31;20123;-70
2022/08/01 04:55:59;;;;;;;5.00;2.20;;;;;;;18.01;70.01;98534.75;4482900;32;21015;-70
2022/08/01 04:58:27;;;;;;;3.78;2.58;;;;;;;18.16;69.36;98532.03;4482241;31;20092;-70
2022/08/01 05:00:54;;;;;;;2.90;2.20;;;;;;;18.23;68.78;98533.72;4482614;31;20096;-70
2022/08/01 05:03:21;;;;;;;3.10;2.45;;;;;;;18.33;68.30;98540.53;4482739;31;20105;-70
2022/08/01 05:05:48;;;;;;;2.92;2.33;;;;;;;18.39;68.01;98542.41;4481543;31;20100;-70
2022/08/01 05:08:16;;;;;;;4.68;2.25;;;;;;;18.49;67.95;98542.09;4480298;32;20124;-70
2022/08/01 05:10:43;;;;;;;6.40;2.08;;;;;;;18.53;67.24;98541.50;4482234;31;20524;-70
2022/08/01 05:13:10;;;;;;;2.67;2.47;;;;;;;18.57;66.83;98542.72;4481673;31;20497;-70
2022/08/01 05:15:37;;;;;;;2.95;2.28;;;;;;;18.71;66.45;98545.47;4481224;31;20393;-70
2022/08/01 05:18:05;;;;;;;2.65;2.05;;;;;;;18.66;66.34;98537.28;4491493;31;20100;-70
2022/08/01 05:20:35;;;;;;;3.67;2.30;;;;;;;18.66;66.52;98537.28;4474962;31;20524;-70
2022/08/01 05:23:02;;;;;;;4.30;2.30;;;;;;;18.75;66.52;98542.22;4482146;31;20111;-70
2022/08/01 05:25:30;;;;;;;4.55;2.10;;;;;;;18.81;65.81;98535.31;4481944;31;20107;-70
2022/08/01 05:28:18;;;;;;;5.15;2.20;;;;;;;18.86;66.24;98538.22;4481490;31;20112;-70
2022/08/01 05:30:45;;;;;;;3.33;2.40;;;;;;;19.03;65.82;98536.09;4483477;32;20096;-70
2022/08/01 05:33:12;;;;;;;6.82;1.90;;;;;;;19.10;65.23;98538.75;4483894;31;20113;-70
2022/08/01 05:35:39;;;;;;;4.32;2.70;;;;;;;19.21;64.97;98535.53;4483513;32;20088;-70
2022/08/01 05:38:15;;;;;;;3.12;2.25;;;;;;;19.31;64.69;98538.63;4482840;31;20438;-70
2022/08/01 05:40:42;;;;;;;3.10;2.35;;;;;;;19.35;64.39;98539.06;4482947;31;20088;-70
2022/08/01 05:43:09;;;;;;;3.08;2.35;;;;;;;19.33;64.72;98536.63;4481709;32;20092;-70
2022/08/01 05:45:36;;;;;;;3.28;2.22;;;;;;;19.38;64.92;98535.19;4482212;31;20445;-70
2022/08/01 05:48:04;;;;;;;3.65;2.40;;;;;;;19.53;64.21;98538.50;4480385;32;20161;-70
2022/08/01 05:50:32;;;;;;;3.80;2.45;;;;;;;19.69;63.60;98538.09;4481677;32;20798;-70
2022/08/01 05:52:59;;;;;;;3.03;2.20;;;;;;;19.82;62.71;98532.03;4482259;31;20155;-70
2022/08/01 05:55:27;;;;;;;3.78;2.40;;;;;;;20.09;61.42;98536.56;4481923;32;20084;-70
2022/08/01 05:57:54;;;;;;;2.40;2.20;;;;;;;20.18;60.78;98536.16;4482166;31;20912;-70
2022/08/01 06:00:21;;;;;;;2.80;2.17;;;;;;;20.18;61.17;98536.16;4481554;31;20168;-70
2022/08/01 06:02:48;;;;;;;6.60;2.50;;;;;;;20.28;61.63;98541.03;4483816;31;20101;-70
2022/08/01 06:05:16;;;;;;;5.28;2.28;;;;;;;20.30;61.37;98539.03;4482931;31;20685;-70
2022/08/01 06:07:43;;;;;;;3.30;2.50;;;;;;;20.47;61.46;98543.88;4483152;31;20105;-70
2022/08/01 06:10:10;;;;;;;3.05;2.22;;;;;;;20.65;60.18;98552.09;4478870;31;20454;-70
2022/08/01 06:12:37;;;;;;;4.00;2.30;;;;;;;20.61;60.35;98550.84;4479339;32;21964;-70
2022/08/01 06:15:05;;;;;;;5.22;2.42;;;;;;;20.72;60.23;98557.41;4484116;31;20123;-70
2022/08/01 06:17:33;;;;;;;2.67;2.40;;;;;;;20.77;60.29;98564.75;4482398;31;20470;-70
2022/08/01 06:20:00;;;;;;;2.72;2.30;;;;;;;20.89;60.41;98568.41;4484941;31;20100;-70
2022/08/01 06:22:27;;;;;;;2.90;2.30;;;;;;;20.87;60.08;98562.50;4482923;31;20101;-70
2022/08/01 06:24:55;;;;;;;4.72;2.25;;;;;;;20.88;60.28;98561.47;4483267;31;20092;-70
2022/08/01 06:27:24;;;;;;;7.32;2.90;;;;;;;20.94;60.21;98565.12;4483918;31;20442;-70
2022/08/01 06:29:54;;;;;;;7.53;2.65;;;;;;;21.03;60.56;98562.03;4484057;31;20111;-70
2022/08/01 06:32:26;;;;;;;4.03;2.62;;;;;;;21.09;60.59;98563.88;4478601;32;20119;-70
2022/08/01 06:34:54;;;;;;;5.90;2.80;;;;;;;21.15;60.62;98562.22;4484864;31;20108;-70
2022/08/01 06:37:22;;;;;;;3.00;2.42;;;;;;;21.11;60.74;98560.19;4485157;32;20177;-70
2022/08/01 06:39:50;;;;;;;4.03;2.70;;;;;;;21.15;61.06;98556.03;4460387;31;20591;-70
2022/08/01 06:42:17;;;;;;;3.15;2.70;;;;;;;21.21;60.76;98561.37;4437932;32;20667;-70
2022/08/01 06:44:45;;;;;;;4.15;2.70;;;;;;;21.37;61.08;98559.25;4452239;32;20097;-70
2022/08/01 06:47:12;;;;;;;5.30;2.70;;;;;;;21.45;60.10;98562.50;4451462;32;20100;-70
2022/08/01 06:49:39;;;;;;;2.80;2.33;;;;;;;21.58;59.73;98563.47;4453634;32;20088;-70
2022/08/01 06:52:07;;;;;;;4.00;2.72;;;;;;;21.79;59.11;98568.47;4453184;32;20528;-70
2022/08/01 06:54:35;;;;;;;2.50;2.20;;;;;;;21.92;59.09;98561.41;4451261;32;20105;-70
2022/08/01 06:57:05;;;;;;;4.43;2.70;;;;;;;21.95;59.36;98560.97;4452968;32;20501;-70
2022/08/01 06:59:33;;;;;;;3.03;2.35;;;;;;;22.13;58.40;98566.41;4451831;32;20143;-70
2022/08/01 07:02:01;;;;;;;3.42;2.37;;;;;;;22.33;57.20;98568.94;4453483;32;20164;-70
2022/08/01 07:04:28;;;;;;;4.07;2.15;;;;;;;22.40;55.21;98562.72;4452892;32;20485;-70
2022/08/01 07:06:56;;;;;;;2.87;2.17;;;;;;;22.39;54.65;98564.59;4452555;32;20583;-70
2022/08/01 07:09:24;;;;;;;4.45;2.00;;;;;;;22.76;54.33;98567.28;4452837;32;20088;-70
2022/08/01 07:11:52;;;;;;;8.65;2.20;;;;;;;23.04;54.36;98565.97;4453602;32;20157;-70
2022/08/01 07:14:20;;;;;;;3.70;2.30;;;;;;;22.88;54.82;98564.72;4453092;32;20096;-70
2022/08/01 07:16:48;;;;;;;9.07;2.25;;;;;;;23.13;54.97;98564.66;4452838;32;20090;-70
2022/08/01 07:19:15;;;;;;;10.30;2.37;;;;;;;23.25;54.27;98563.91;4452638;32;20548;-70
2022/08/01 07:21:42;;;;;;;3.45;2.05;;;;;;;23.42;51.82;98564.09;4451559;32;20151;-70
2022/08/01 07:24:13;;;;;;;2.67;2.08;;;;;;;23.78;51.78;98557.84;4452682;32;20169;-70
2022/08/01 07:26:43;;;;;;;4.00;2.83;;;;;;;24.34;48.94;98560.31;4452965;32;20085;-70
2022/08/01 07:29:24;;;;;;;4.22;2.28;;;;;;;24.45;48.91;98556.81;4452423;32;20119;-70
2022/08/01 07:31:52;;;;;;;2.35;2.15;;;;;;;24.45;48.16;98559.47;4453917;32;20081;-70
2022/08/01 07:34:21;;;;;;;4.70;2.05;;;;;;;24.58;49.15;98561.97;4453315;32;20089;-70
2022/08/01 07:36:49;;;;;;;10.18;3.53;;;;;;;24.81;48.57;98565.69;4450786;32;20163;-70
2022/08/01 07:39:16;;;;;;;3.22;2.10;;;;;;;25.02;48.35;98579.53;4461587;32;20161;-70
2022/08/01 07:41:43;;;;;;;3.42;2.28;;;;;;;24.92;46.89;98570.22;4481460;32;20108;-70
2022/08/01 07:44:31;;;;;;;4.53;1.80;;;;;;;24.65;47.37;98571.75;4482641;32;20134;-70
2022/08/01 07:46:58;;;;;;;3.80;2.17;;;;;;;24.62;48.64;98573.03;4482848;31;20743;-70
2022/08/01 07:49:25;;;;;;;2.37;2.05;;;;;;;24.68;47.77;98580.16;4481892;31;20448;-71
2022/08/01 07:51:54;;;;;;;4.72;2.30;;;;;;;24.53;46.92;98575.22;4481877;32;20212;-70
2022/08/01 07:54:31;;;;;;;4.03;2.50;;;;;;;24.60;47.46;98580.47;4481096;32;20118;-71
2022/08/01 07:57:01;;;;;;;3.62;1.90;;;;;;;24.48;48.56;98576.97;4481823;32;20503;-71
2022/08/01 07:59:28;;;;;;;6.70;2.20;;;;;;;24.29;49.17;98585.09;4481770;31;20096;-70
2022/08/01 08:01:56;;;;;;;21.40;11.48;;;;;;;24.34;49.35;98587.09;4481600;32;20111;-70
2022/08/01 08:04:23;;;;;;;5.95;2.10;;;;;;;24.20;49.37;98576.59;4481992;31;20113;-70
2022/08/01 08:06:50;;;;;;;7.45;2.05;;;;;;;24.37;47.03;98586.62;4482519;31;20100;-72
2022/08/01 08:09:17;;;;;;;3.75;2.00;;;;;;;24.19;47.22;98584.84;4481403;31;20134;-72
2022/08/01 08:11:46;;;;;;;4.35;2.10;;;;;;;24.06;48.20;98591.22;4479915;31;20123;-70
2022/08/01 08:14:15;;;;;;;3.67;2.12;;;;;;;23.99;47.92;98588.63;4480205;32;20179;-70
2022/08/01 08:16:43;;;;;;;4.00;2.00;;;;;;;24.00;48.11;98594.81;4481012;31;20130;-70
2022/08/01 08:19:11;;;;;;;3.65;2.12;;;;;;;24.10;47.88;98589.72;4480744;31;20116;-70
2022/08/01 08:21:38;;;;;;;6.95;2.15;;;;;;;24.18;48.35;98597.41;4479167;32;20401;-70
2022/08/01 08:24:19;;;;;;;4.47;2.25;;;;;;;24.32;46.55;98594.53;4481712;32;20100;-70
2022/08/01 08:26:55;;;;;;;8.55;3.90;;;;;;;24.25;46.73;98600.81;4481995;31;20656;-70
2022/08/01 08:29:23;;;;;;;2.78;1.92;;;;;;;24.22;48.25;98603.12;4482287;31;20115;-72
2022/08/01 08:31:50;;;;;;;3.65;1.98;;;;;;;24.43;47.71;98602.56;4482276;31;20715;-72
2022/08/01 08:34:19;;;;;;;3.95;3.28;;;;;;;24.55;48.74;98599.09;4480543;32;20134;-72
2022/08/01 08:36:51;;;;;;;5.62;2.40;;;;;;;24.65;48.85;98606.56;4483509;31;20091;-72
2022/08/01 08:39:18;;;;;;;4.97;2.42;;;;;;;24.61;48.82;98603.53;4484388;31;20114;-72
2022/08/01 08:41:47;;;;;;;2.50;2.22;;;;;;;24.16;49.31;98610.19;4484683;31;20168;-72
2022/08/01 08:44:17;;;;;;;4.85;2.40;;;;;;;24.38;49.54;98615.03;4484624;31;20089;-72
2022/08/01 08:46:46;;;;;;;7.32;2.95;;;;;;;24.61;48.56;98608.91;4483868;31;20138;-72
2022/08/01 08:49:26;;;;;;;5.82;2.35;;;;;;;24.62;48.71;98605.19;4484567;31;20091;-72
2022/08/01 08:52:03;;;;;;;8.32;2.50;;;;;;;24.74;48.03;98606.00;4484215;31;20088;-72
2022/08/01 08:54:32;;;;;;;4.90;2.40;;;;;;;24.80;48.12;98605.06;4483386;32;20115;-72
2022/08/01 08:57:01;;;;;;;3.60;2.50;;;;;;;24.70;48.32;98606.69;4483431;31;20096;-72
2022/08/01 08:59:29;;;;;;;3.10;2.15;;;;;;;24.92;48.30;98605.06;4483582;31;20092;-71
2022/08/01 09:01:57;;;;;;;2.90;2.60;;;;;;;25.28;47.56;98611.16;4483520;32;20096;-71
2022/08/01 09:04:26;;;;;;;4.53;3.00;;;;;;;25.48;47.85;98604.59;4483352;31;20114;-70
2022/08/01 09:06:53;;;;;;;6.00;2.75;;;;;;;25.31;47.72;98609.91;4483185;31;20378;-70
2022/08/01 09:09:22;;;;;;;3.72;2.60;;;;;;;25.00;48.82;98611.09;4482299;32;20135;-70
2022/08/01 09:11:50;;;;;;;6.20;3.08;;;;;;;25.32;47.23;98606.97;4483630;31;20096;-70
2022/08/01 09:14:30;;;;;;;3.45;2.70;;;;;;;25.29;48.22;98614.66;4484317;31;20102;-70
2022/08/01 09:17:01;;;;;;;;;;;;;;;25.47;47.40;98611.03;4483701;31;20516;-70
2022/08/01 09:19:47;;;;;;;3.70;2.78;;;;;;;25.47;46.67;98605.66;4484058;31;19988;-69
2022/08/01 09:22:18;;;;;;;5.70;3.05;;;;;;;25.58;47.00;98604.81;4483000;31;20175;-70
2022/08/01 09:25:07;;;;;;;3.03;2.70;;;;;;;25.64;46.54;98603.03;4482171;31;20088;-70
2022/08/01 09:27:35;;;;;;;15.38;3.53;;;;;;;25.46;46.91;98610.19;4482250;31;20084;-72
2022/08/01 09:30:13;;;;;;;5.70;3.00;;;;;;;25.69;45.56;98603.12;4483347;32;20100;-72
2022/08/01 09:32:57;;;;;;;5.90;3.12;;;;;;;25.87;45.70;98604.78;4481841;32;20084;-72
2022/08/01 09:35:31;;;;;;;3.35;3.05;;;;;;;25.68;45.57;98605.00;4480867;31;20119;-72
2022/08/01 09:38:18;;;;;;;3.53;2.97;;;;;;;25.87;45.21;98602.09;4480390;31;20104;-72
2022/08/01 09:40:50;;;;;;;4.97;3.33;;;;;;;26.08;45.26;98602.50;4481983;32;20100;-70
2022/08/01 09:43:19;;;;;;;5.43;2.92;;;;;;;26.71;44.23;98603.28;4483445;31;20080;-71
2022/08/01 09:45:47;;;;;;;4.30;3.15;;;;;;;27.23;42.90;98592.13;4483372;31;20537;-70
2022/08/01 09:48:20;;;;;;;4.93;3.10;;;;;;;27.16;42.03;98598.75;4481706;32;20134;-72
2022/08/01 09:50:54;;;;;;;4.62;3.33;;;;;;;27.22;42.19;98593.19;4485438;31;20131;-72
2022/08/01 09:53:48;;;;;;;6.57;3.28;;;;;;;26.91;41.72;98600.84;4485059;32;20145;-72
2022/08/01 09:56:21;;;;;;;5.53;3.35;;;;;;;27.18;41.47;98607.41;4484965;32;20072;-72
2022/08/01 09:58:57;;;;;;;3.50;3.20;;;;;;;27.30;41.73;98600.00;4485363;31;20092;-72
2022/08/01 10:01:43;;;;;;;5.00;3.33;;;;;;;27.34;41.12;98600.34;4484973;31;20777;-73
2022/08/01 10:04:15;;;;;;;3.40;3.03;;;;;;;28.02;40.05;98598.13;4480388;32;20164;-73
2022/08/01 10:06:49;;;;;;;3.70;3.25;;;;;;;28.30;38.64;98599.69;4484316;32;20085;-73
2022/08/01 10:09:27;;;;;;;5.72;3.28;;;;;;;28.10;38.49;98596.81;4469978;32;20537;-73
2022/08/01 10:12:07;;;;;;;7.85;3.42;;;;;;;27.88;38.71;98604.97;4471638;32;20519;-71
2022/08/01 10:14:37;;;;;;;7.97;3.10;;;;;;;27.67;39.49;98604.75;4485433;32;20096;-71
2022/08/01 10:17:09;;;;;;;3.35;3.05;;;;;;;28.12;39.00;98597.41;4484961;31;20103;-71
2022/08/01 10:19:46;;;;;;;3.53;2.90;;;;;;;28.21;38.12;98595.06;4482532;32;20127;-71
2022/08/01 10:22:17;;;;;;;3.42;2.90;;;;;;;28.37;38.00;98601.38;4483576;31;20097;-72
2022/08/01 10:24:47;;;;;;;4.05;2.67;;;;;;;28.37;37.41;98599.47;4483889;31;20100;-75
2022/08/01 10:27:16;;;;;;;3.75;3.17;;;;;;;28.58;37.62;98596.94;4483056;32;20709;-73
2022/08/01 10:30:03;;;;;;;4.20;3.40;;;;;;;28.25;38.16;98590.75;4483786;31;20590;-72
2022/08/01 10:32:45;;;;;;;7.20;3.53;;;;;;;28.78;37.82;98580.09;4483233;32;20539;-75
2022/08/01 10:35:17;;;;;;;4.45;3.00;;;;;;;29.25;36.83;98579.28;4482166;31;20088;-72
2022/08/01 10:38:05;;;;;;;6.30;2.85;;;;;;;28.57;37.28;98579.97;4484739;31;20091;-74
2022/08/01 10:40:41;;;;;;;3.80;2.92;;;;;;;28.22;38.01;98575.94;4483314;31;20097;-72
2022/08/01 10:43:12;;;;;;;4.50;2.35;;;;;;;28.35;38.00;98585.47;4479566;32;20104;-73
2022/08/01 10:45:49;;;;;;;8.57;3.05;;;;;;;28.80;36.97;98578.78;4483941;31;20084;-72
2022/08/01 10:48:30;;;;;;;3.65;2.90;;;;;;;28.88;35.85;98579.34;4484115;31;20125;-74
2022/08/01 10:51:03;;;;;;;5.78;2.72;;;;;;;28.85;37.00;98576.09;4483750;32;20119;-74
2022/08/01 10:53:30;;;;;;;;;;;;;;;29.20;36.63;98576.53;4474682;31;20394;-72
2022/08/01 10:56:10;;;;;;;6.90;3.20;;;;;;;28.55;36.67;98579.41;4481081;32;20043;-73
2022/08/01 10:58:42;;;;;;;3.95;2.50;;;;;;;28.29;37.70;98584.59;4483899;31;20153;-73
2022/08/01 11:01:24;;;;;;;5.45;2.78;;;;;;;28.11;38.68;98571.53;4483450;32;20080;-74
2022/08/01 11:04:02;;;;;;;5.12;3.08;;;;;;;27.92;38.18;98573.75;4484890;31;20896;-76
2022/08/01 11:06:33;;;;;;;3.03;2.53;;;;;;;28.13;38.17;98567.53;4484085;31;20095;-75
2022/08/01 11:09:03;;;;;;;4.95;3.10;;;;;;;28.36;38.34;98579.00;4485238;31;20080;-75
2022/08/01 11:11:32;;;;;;;5.53;2.83;;;;;;;28.27;37.98;98580.56;4485476;31;20107;-74
2022/08/01 11:14:09;;;;;;;8.05;2.80;;;;;;;28.69;37.54;98563.59;4484238;32;20591;-73
2022/08/01 11:16:37;;;;;;;2.92;2.58;;;;;;;28.79;36.70;98568.25;4485598;32;20110;-74
2022/08/01 11:19:10;;;;;;;2.80;2.60;;;;;;;28.93;35.73;98558.59;4485675;31;20118;-73
2022/08/01 11:21:52;;;;;;;3.20;2.60;;;;;;;29.00;36.29;98556.47;4485552;31;20088;-75
2022/08/01 11:24:48;;;;;;;2.58;2.37;;;;;;;29.03;36.45;98557.84;4485257;31;20115;-74
2022/08/01 11:27:21;;;;;;;3.80;2.85;;;;;;;29.37;36.59;98560.16;4485029;31;20121;-74
2022/08/01 11:30:08;;;;;;;3.12;2.20;;;;;;;28.77;36.20;98556.94;4485155;31;20080;-75
2022/08/01 11:32:56;;;;;;;5.20;2.10;;;;;;;29.40;34.81;98558.81;4485586;31;20111;-75
2022/08/01 11:36:21;;;;;;;4.10;2.53;;;;;;;30.04;34.07;98546.78;4482599;31;20493;-76
2022/08/01 11:39:08;;;;;;;4.90;2.22;;;;;;;30.45;33.98;98538.66;4484288;32;20111;-75
2022/08/01 11:41:41;;;;;;;3.08;1.90;;;;;;;30.01;33.93;98547.31;4485696;31;20125;-74
2022/08/01 11:44:19;;;;;;;2.22;2.03;;;;;;;29.98;33.14;98553.25;4485080;32;20115;-75
2022/08/01 11:47:11;;;;;;;3.35;2.10;;;;;;;29.77;32.98;98538.88;4476633;32;20138;-75
2022/08/01 11:49:45;;;;;;;4.35;2.40;;;;;;;29.47;34.05;98537.78;4484771;31;20084;-77
2022/08/01 11:52:19;;;;;;;3.25;2.10;;;;;;;28.88;34.36;98545.09;4484939;31;20220;-77
2022/08/01 11:54:54;;;;;;;3.65;1.80;;;;;;;28.74;34.60;98542.09;4485085;31;20144;-75